createdAt,value
2022-10-09T00:01:03.527Z,477.33
2022-10-09T00:03:31.569Z,475.67
2022-10-09T00:05:59.777Z,479.50
2022-10-09T00:08:27.696Z,478.27
2022-10-09T00:10:55.641Z,478.23
2022-10-09T00:13:24.952Z,466.97
2022-10-09T00:15:52.864Z,466.27
2022-10-09T00:18:20.885Z,479.03
2022-10-09T00:20:49.006Z,479.83
2022-10-09T00:23:18.417Z,493.30
2022-10-09T00:25:53.924Z,481.33
2022-10-09T00:28:22.691Z,468.63
2022-10-09T00:30:52.349Z,472.10
2022-10-09T00:33:20.359Z,452.80
2022-10-09T00:35:48.303Z,459.80
2022-10-09T00:38:16.456Z,457.47
2022-10-09T00:40:44.675Z,459.33
2022-10-09T00:43:16.950Z,455.27
2022-10-09T00:45:46.861Z,455.07
2022-10-09T00:48:16.566Z,461.37
2022-10-09T00:50:46.516Z,453.23
2022-10-09T00:53:17.467Z,450.50
2022-10-09T00:55:45.718Z,454.00
2022-10-09T00:58:14.075Z,459.60
2022-10-09T01:00:42.568Z,466.83
2022-10-09T01:03:10.658Z,452.13
2022-10-09T01:05:45.343Z,451.77
2022-10-09T01:08:17.859Z,445.97
2022-10-09T01:10:51.129Z,448.50
2022-10-09T01:13:24.572Z,438.37
2022-10-09T01:15:54.227Z,454.70
2022-10-09T01:18:25.132Z,455.10
2022-10-09T01:20:56.592Z,456.70
2022-10-09T01:23:54.407Z,470.03
2022-10-09T01:26:32.535Z,475.83
2022-10-09T01:29:04.734Z,483.60
2022-10-09T01:31:35.524Z,495.37
2022-10-09T01:34:04.573Z,496.47
2022-10-09T01:36:32.715Z,503.07
2022-10-09T01:39:02.261Z,493.67
2022-10-09T01:41:30.664Z,498.83
2022-10-09T01:43:58.610Z,517.13
2022-10-09T01:46:29.678Z,519.50
2022-10-09T01:49:07.885Z,525.07
2022-10-09T01:51:39.875Z,540.90
2022-10-09T01:54:08.713Z,543.80
2022-10-09T01:56:39.569Z,546.80
2022-10-09T01:59:14.815Z,537.60
2022-10-09T02:01:46.213Z,552.77
2022-10-09T02:04:15.879Z,546.97
2022-10-09T02:06:44.871Z,554.63
2022-10-09T02:09:15.450Z,564.90
2022-10-09T02:11:45.685Z,556.00
2022-10-09T02:14:13.866Z,552.20
2022-10-09T02:16:43.392Z,572.27
2022-10-09T02:19:15.613Z,565.53
2022-10-09T02:21:46.634Z,566.90
2022-10-09T02:24:16.288Z,570.73
2022-10-09T02:26:44.240Z,576.57
2022-10-09T02:29:13.477Z,578.97
2022-10-09T02:31:42.800Z,582.43
2022-10-09T02:34:13.940Z,588.00
2022-10-09T02:36:41.945Z,574.77
2022-10-09T02:39:10.516Z,575.30
2022-10-09T02:41:38.660Z,580.30
2022-10-09T02:44:07.020Z,572.57
2022-10-09T02:46:35.434Z,578.20
2022-10-09T02:49:03.654Z,587.10
2022-10-09T02:51:33.027Z,586.77
2022-10-09T02:54:01.003Z,578.13
2022-10-09T02:56:29.006Z,591.67
2022-10-09T02:58:57.485Z,582.93
2022-10-09T03:01:25.856Z,581.60
2022-10-09T03:03:54.076Z,583.00
2022-10-09T03:06:24.831Z,585.90
2022-10-09T03:08:55.028Z,589.60
2022-10-09T03:11:24.569Z,583.73
2022-10-09T03:13:52.597Z,592.47
2022-10-09T03:16:22.284Z,594.30
2022-10-09T03:18:51.383Z,586.63
2022-10-09T03:21:20.641Z,592.80
2022-10-09T03:23:48.641Z,585.87
2022-10-09T03:26:20.773Z,598.43
2022-10-09T03:28:50.180Z,588.73
2022-10-09T03:31:46.468Z,592.70
2022-10-09T03:34:07.348Z,581.10
2022-10-09T03:36:35.517Z,564.37
2022-10-09T03:39:03.500Z,569.47
2022-10-09T03:41:32.806Z,576.73
2022-10-09T03:44:00.833Z,581.20
2022-10-09T03:46:28.831Z,583.37
2022-10-09T03:48:57.208Z,588.70
2022-10-09T03:51:25.373Z,586.67
2022-10-09T03:53:53.361Z,588.37
2022-10-09T03:56:21.487Z,599.97
2022-10-09T03:58:50.846Z,598.27
2022-10-09T04:01:18.842Z,605.17
2022-10-09T04:03:46.796Z,600.63
2022-10-09T04:06:14.731Z,599.07
2022-10-09T04:08:42.657Z,570.17
2022-10-09T04:11:10.563Z,565.87
2022-10-09T04:13:38.484Z,574.40
2022-10-09T04:16:12.538Z,561.50
2022-10-09T04:18:41.045Z,570.83
2022-10-09T04:21:09.205Z,570.63
2022-10-09T04:23:37.220Z,574.20
2022-10-09T04:26:05.186Z,572.70
2022-10-09T04:28:33.389Z,560.93
2022-10-09T04:31:02.773Z,574.27
2022-10-09T04:33:32.342Z,573.07
2022-10-09T04:36:00.276Z,587.67
2022-10-09T04:38:28.268Z,594.03
2022-10-09T04:40:57.407Z,601.03
2022-10-09T04:43:25.432Z,598.80
2022-10-09T04:45:53.556Z,601.30
2022-10-09T04:48:21.734Z,601.73
2022-10-09T04:50:51.139Z,607.87
2022-10-09T04:53:19.091Z,599.53
2022-10-09T04:55:47.142Z,609.13
2022-10-09T04:58:15.236Z,608.10
2022-10-09T05:00:43.948Z,606.97
2022-10-09T05:03:12.576Z,603.73
2022-10-09T05:05:40.909Z,606.10
2022-10-09T05:08:10.277Z,611.60
2022-10-09T05:10:38.332Z,611.20
2022-10-09T05:13:06.773Z,609.93
2022-10-09T05:15:37.644Z,610.83
2022-10-09T05:18:05.795Z,615.30
2022-10-09T05:20:33.786Z,606.90
2022-10-09T05:23:02.521Z,607.57
2022-10-09T05:25:31.812Z,606.33
2022-10-09T05:28:00.323Z,623.30
2022-10-09T05:30:28.377Z,616.93
2022-10-09T05:32:56.371Z,619.73
2022-10-09T05:35:24.321Z,615.00
2022-10-09T05:37:52.374Z,623.07
2022-10-09T05:40:20.342Z,629.07
2022-10-09T05:42:52.078Z,636.50
2022-10-09T05:45:20.060Z,644.67
2022-10-09T05:47:48.064Z,648.63
2022-10-09T05:50:16.110Z,640.33
2022-10-09T05:52:44.053Z,646.50
2022-10-09T05:55:11.980Z,642.20
2022-10-09T05:57:39.958Z,651.30
2022-10-09T06:00:10.965Z,644.17
2022-10-09T06:02:40.236Z,642.53
2022-10-09T06:05:08.695Z,639.93
2022-10-09T06:07:36.598Z,649.77
2022-10-09T06:10:04.974Z,654.73
2022-10-09T06:12:33.060Z,662.83
2022-10-09T06:15:00.932Z,649.93
2022-10-09T06:17:30.218Z,631.90
2022-10-09T06:19:58.258Z,636.00
2022-10-09T06:22:26.332Z,627.77
2022-10-09T06:24:54.253Z,615.80
2022-10-09T06:27:22.179Z,631.97
2022-10-09T06:29:50.165Z,632.60
2022-10-09T06:32:18.169Z,641.43
2022-10-09T06:34:47.528Z,680.90
2022-10-09T06:37:15.442Z,692.57
2022-10-09T06:39:43.292Z,658.23
2022-10-09T06:42:11.209Z,672.07
2022-10-09T06:44:50.793Z,672.97
2022-10-09T06:47:18.748Z,680.70
2022-10-09T06:49:48.029Z,696.03
2022-10-09T06:52:15.953Z,689.40
2022-10-09T06:54:43.942Z,696.63
2022-10-09T06:57:11.908Z,694.43
2022-10-09T06:59:39.790Z,697.83
2022-10-09T07:02:07.851Z,709.63
2022-10-09T07:04:35.914Z,710.83
2022-10-09T07:07:05.293Z,696.73
2022-10-09T07:09:33.220Z,698.63
2022-10-09T07:12:01.256Z,702.73
2022-10-09T07:14:30.596Z,702.33
2022-10-09T07:16:58.554Z,687.80
2022-10-09T07:19:26.472Z,683.13
2022-10-09T07:21:54.400Z,680.70
2022-10-09T07:24:25.353Z,695.50
2022-10-09T07:26:55.328Z,700.57
2022-10-09T07:29:23.363Z,704.80
2022-10-09T07:31:51.242Z,701.90
2022-10-09T07:34:19.239Z,688.73
2022-10-09T07:36:47.146Z,692.43
2022-10-09T07:39:15.169Z,700.30
2022-10-09T07:41:44.590Z,735.23
2022-10-09T07:44:12.788Z,726.40
2022-10-09T07:46:40.875Z,726.00
2022-10-09T07:49:08.961Z,724.53
2022-10-09T07:51:37.373Z,707.30
2022-10-09T07:54:05.865Z,739.63
2022-10-09T07:56:35.827Z,716.20
2022-10-09T07:59:06.679Z,695.83
2022-10-09T08:01:36.248Z,681.30
2022-10-09T08:04:05.092Z,600.77
2022-10-09T08:06:33.843Z,585.77
2022-10-09T08:09:02.644Z,591.07
2022-10-09T08:11:31.463Z,596.43
2022-10-09T08:13:59.813Z,621.87
2022-10-09T08:16:29.691Z,664.23
2022-10-09T08:18:59.908Z,674.60
2022-10-09T08:21:29.078Z,701.20
2022-10-09T08:23:58.546Z,706.43
2022-10-09T08:26:28.110Z,687.83
2022-10-09T08:28:57.533Z,668.40
2022-10-09T08:31:26.290Z,662.67
2022-10-09T08:33:56.832Z,632.40
2022-10-09T08:36:25.235Z,584.03
2022-10-09T08:38:53.693Z,573.23
2022-10-09T08:41:28.762Z,562.63
2022-10-09T08:44:02.691Z,543.93
2022-10-09T08:46:34.568Z,539.77
2022-10-09T08:49:06.060Z,525.73
2022-10-09T08:51:37.729Z,522.73
2022-10-09T08:54:12.481Z,514.03
2022-10-09T08:56:40.690Z,520.53
2022-10-09T08:59:10.999Z,506.73
2022-10-09T09:01:44.657Z,518.27
2022-10-09T09:04:26.539Z,501.97
2022-10-09T09:07:00.819Z,495.13
2022-10-09T09:09:37.012Z,495.33
2022-10-09T09:12:08.999Z,453.07
2022-10-09T09:14:46.487Z,463.80
2022-10-09T09:17:21.043Z,460.47
2022-10-09T09:19:58.447Z,443.63
2022-10-09T09:22:27.234Z,445.13
2022-10-09T09:24:57.392Z,412.00
2022-10-09T09:27:29.240Z,399.97
2022-10-09T09:30:00.137Z,415.27
2022-10-09T09:32:30.601Z,405.87
2022-10-09T09:35:08.284Z,398.03
2022-10-09T09:37:37.798Z,391.07
2022-10-09T09:42:57.128Z,380.63
2022-10-09T09:45:27.630Z,373.20
2022-10-09T09:47:57.939Z,360.27
2022-10-09T09:50:48.183Z,355.77
2022-10-09T09:53:26.814Z,346.43
2022-10-09T09:55:55.976Z,339.63
2022-10-09T09:58:24.783Z,332.70
2022-10-09T10:00:57.203Z,382.10
2022-10-09T10:03:26.419Z,378.83
2022-10-09T10:05:55.998Z,374.03
2022-10-09T10:08:25.960Z,381.37
2022-10-09T10:10:55.657Z,365.53
2022-10-09T10:13:24.986Z,383.97
2022-10-09T10:15:54.955Z,371.80
2022-10-09T10:18:24.115Z,372.30
2022-10-09T10:20:56.239Z,372.00
2022-10-09T10:23:34.038Z,367.10
2022-10-09T10:26:05.127Z,368.23
2022-10-09T10:28:37.081Z,372.73
2022-10-09T10:31:07.162Z,372.07
2022-10-09T10:33:37.274Z,370.93
2022-10-09T10:36:09.988Z,368.53
2022-10-09T10:38:42.777Z,372.23
2022-10-09T10:41:15.513Z,365.07
2022-10-09T10:43:45.801Z,366.57
2022-10-09T10:46:20.262Z,362.00
2022-10-09T10:48:50.097Z,332.63
2022-10-09T10:51:38.532Z,332.00
2022-10-09T10:54:18.874Z,331.67
2022-10-09T10:56:49.816Z,307.90
2022-10-09T10:59:31.183Z,300.37
2022-10-09T11:02:22.119Z,303.50
2022-10-09T11:04:56.537Z,303.67
2022-10-09T11:07:31.652Z,302.03
2022-10-09T11:10:05.212Z,297.43
2022-10-09T11:12:53.785Z,290.93
2022-10-09T11:15:34.228Z,286.37
2022-10-09T11:18:10.862Z,286.60
2022-10-09T11:21:02.299Z,275.57
2022-10-09T11:23:40.984Z,281.13
2022-10-09T11:26:16.192Z,269.97
2022-10-09T11:28:49.684Z,279.97
2022-10-09T11:31:20.775Z,258.20
2022-10-09T11:33:52.171Z,257.73
2022-10-09T11:36:24.023Z,264.10
2022-10-09T11:38:56.246Z,258.97
2022-10-09T11:41:24.513Z,250.37
2022-10-09T11:44:00.669Z,247.67
2022-10-09T11:46:35.929Z,241.70
2022-10-09T11:49:10.574Z,233.23
2022-10-09T11:51:45.493Z,224.73
2022-10-09T11:54:17.750Z,198.27
2022-10-09T11:56:54.992Z,197.03
2022-10-09T11:59:26.145Z,190.50
2022-10-09T12:01:54.157Z,174.77
2022-10-09T12:04:50.081Z,175.30
2022-10-09T12:07:13.168Z,157.83
2022-10-09T12:09:44.035Z,147.03
2022-10-09T12:12:22.558Z,145.20
2022-10-09T12:14:51.922Z,153.90
2022-10-09T12:17:34.195Z,144.30
2022-10-09T12:20:07.641Z,138.93
2022-10-09T12:22:37.953Z,123.90
2022-10-09T12:25:09.959Z,125.07
2022-10-09T12:27:40.601Z,132.87
2022-10-09T12:30:19.387Z,124.07
2022-10-09T12:32:50.599Z,134.37
2022-10-09T12:35:22.841Z,119.93
2022-10-09T12:37:50.817Z,118.97
2022-10-09T12:40:24.342Z,117.97
2022-10-09T12:42:53.978Z,122.20
2022-10-09T12:45:23.685Z,130.33
2022-10-09T12:47:52.806Z,123.40
2022-10-09T12:50:25.064Z,122.13
2022-10-09T12:52:56.704Z,122.83
2022-10-09T12:55:28.290Z,130.20
2022-10-09T12:57:58.938Z,119.90
2022-10-09T13:00:26.927Z,114.07
2022-10-09T13:02:55.506Z,117.17
2022-10-09T13:05:23.899Z,118.83
2022-10-09T13:07:53.135Z,117.60
2022-10-09T13:10:23.672Z,123.43
2022-10-09T13:12:56.602Z,117.83
2022-10-09T13:15:32.080Z,116.70
2022-10-09T13:18:00.543Z,116.00
2022-10-09T13:20:31.305Z,114.53
2022-10-09T13:23:01.124Z,112.27
2022-10-09T13:25:32.952Z,100.50
2022-10-09T13:28:02.977Z,102.67
2022-10-09T13:30:31.070Z,98.67
2022-10-09T13:32:59.032Z,94.47
2022-10-09T13:35:27.344Z,99.30
2022-10-09T13:37:55.446Z,87.07
2022-10-09T13:40:23.691Z,92.50
2022-10-09T13:42:55.095Z,98.53
2022-10-09T13:45:24.630Z,91.13
2022-10-09T13:47:52.990Z,88.37
2022-10-09T13:50:21.648Z,92.17
2022-10-09T13:52:52.445Z,88.53
2022-10-09T13:55:20.586Z,85.50
2022-10-09T13:57:48.811Z,91.53
2022-10-09T14:00:17.455Z,89.07
2022-10-09T14:02:46.804Z,87.30
2022-10-09T14:05:14.771Z,84.33
2022-10-09T14:07:42.800Z,76.73
2022-10-09T14:10:11.394Z,80.30
2022-10-09T14:12:39.604Z,76.77
2022-10-09T14:15:08.430Z,73.90
2022-10-09T14:17:36.529Z,72.70
2022-10-09T14:20:06.849Z,79.13
2022-10-09T14:22:35.848Z,76.80
2022-10-09T14:25:04.725Z,76.23
2022-10-09T14:27:32.686Z,76.03
2022-10-09T14:30:00.757Z,77.53
2022-10-09T14:32:28.825Z,77.77
2022-10-09T14:34:56.902Z,77.73
2022-10-09T14:37:40.966Z,74.07
2022-10-09T14:40:12.772Z,71.97
2022-10-09T14:42:41.261Z,74.80
2022-10-09T14:45:10.726Z,73.60
2022-10-09T14:47:40.636Z,69.80
2022-10-09T14:50:09.394Z,66.77
2022-10-09T14:52:38.965Z,67.03
2022-10-09T14:55:07.552Z,67.67
2022-10-09T14:57:35.910Z,63.07
2022-10-09T15:00:05.641Z,56.43
2022-10-09T15:02:33.772Z,56.93
2022-10-09T15:05:01.839Z,53.20
2022-10-09T15:07:29.780Z,48.20
2022-10-09T15:09:59.199Z,49.50
2022-10-09T15:12:27.187Z,48.07
2022-10-09T15:14:55.362Z,47.87
2022-10-09T15:17:23.367Z,44.17
2022-10-09T15:19:51.355Z,45.00
2022-10-09T15:22:19.314Z,46.33
2022-10-09T15:24:48.081Z,42.60
2022-10-09T15:27:17.438Z,42.17
2022-10-09T15:29:45.457Z,44.97
2022-10-09T15:32:13.447Z,41.47
2022-10-09T15:34:41.420Z,42.00
2022-10-09T15:37:09.428Z,42.13
2022-10-09T15:39:37.764Z,40.67
2022-10-09T15:42:06.031Z,37.63
2022-10-09T15:44:35.481Z,41.40
2022-10-09T15:47:03.588Z,37.77
2022-10-09T15:49:31.737Z,39.43
2022-10-09T15:51:59.832Z,39.47
2022-10-09T15:54:27.849Z,38.33
2022-10-09T15:56:55.836Z,37.93
2022-10-09T15:59:23.834Z,37.87
2022-10-09T16:01:53.606Z,36.37
2022-10-09T16:04:21.668Z,36.97
2022-10-09T16:06:49.622Z,38.00
2022-10-09T16:09:17.719Z,37.77
2022-10-09T16:11:45.720Z,35.67
2022-10-09T16:14:13.639Z,38.67
2022-10-09T16:16:41.606Z,36.00
2022-10-09T16:19:10.901Z,35.87
2022-10-09T16:21:38.911Z,37.83
2022-10-09T16:24:07.293Z,33.77
2022-10-09T16:26:35.333Z,34.43
2022-10-09T16:29:03.470Z,37.40
2022-10-09T16:31:34.753Z,35.73
2022-10-09T16:34:03.759Z,34.87
2022-10-09T16:36:33.328Z,38.73
2022-10-09T16:39:01.490Z,38.73
2022-10-09T16:41:29.613Z,39.13
2022-10-09T16:43:59.886Z,38.77
2022-10-09T16:46:31.618Z,44.37
2022-10-09T16:49:00.886Z,43.07
2022-10-09T16:51:31.004Z,43.50
2022-10-09T16:54:02.097Z,44.67
2022-10-09T16:56:33.102Z,47.57
2022-10-09T16:59:04.342Z,48.23
2022-10-09T17:01:40.396Z,52.23
2022-10-09T17:04:08.596Z,58.43
2022-10-09T17:06:37.473Z,62.37
2022-10-09T17:09:13.966Z,64.23
2022-10-09T17:11:44.617Z,64.27
2022-10-09T17:14:13.313Z,71.03
2022-10-09T17:16:44.375Z,65.80
2022-10-09T17:19:15.538Z,73.13
2022-10-09T17:21:44.028Z,66.47
2022-10-09T17:24:17.939Z,69.70
2022-10-09T17:26:48.735Z,67.63
2022-10-09T17:29:16.758Z,75.70
2022-10-09T17:31:44.708Z,76.20
2022-10-09T17:34:13.729Z,81.20
2022-10-09T17:36:42.722Z,83.47
2022-10-09T17:39:14.770Z,81.27
2022-10-09T17:41:43.284Z,89.77
2022-10-09T17:44:12.791Z,93.57
2022-10-09T17:46:40.803Z,91.37
2022-10-09T17:49:11.671Z,93.77
2022-10-09T17:51:40.631Z,91.10
2022-10-09T17:54:15.288Z,96.73
2022-10-09T17:56:43.498Z,98.10
2022-10-09T17:59:12.336Z,85.97
2022-10-09T18:01:40.795Z,78.43
2022-10-09T18:04:11.232Z,69.80
2022-10-09T18:06:39.880Z,70.70
2022-10-09T18:09:08.201Z,69.73
2022-10-09T18:11:40.397Z,59.30
2022-10-09T18:14:09.297Z,59.23
2022-10-09T18:16:40.669Z,54.47
2022-10-09T18:19:12.712Z,51.23
2022-10-09T18:21:41.844Z,48.20
2022-10-09T18:24:10.202Z,44.90
2022-10-09T18:26:40.083Z,48.67
2022-10-09T18:29:08.623Z,46.50
2022-10-09T18:31:37.792Z,43.57
2022-10-09T18:34:06.966Z,43.23
2022-10-09T18:36:36.099Z,44.23
2022-10-09T18:39:09.994Z,45.47
2022-10-09T18:41:42.276Z,47.17
2022-10-09T18:44:20.087Z,47.57
2022-10-09T18:46:50.794Z,43.03
2022-10-09T18:49:28.270Z,50.53
2022-10-09T18:51:59.997Z,45.87
2022-10-09T18:54:36.446Z,48.57
2022-10-09T18:57:06.412Z,49.77
2022-10-09T18:59:38.258Z,48.83
2022-10-09T19:02:06.468Z,47.13
2022-10-09T19:04:36.258Z,49.07
2022-10-09T19:07:08.569Z,44.33
2022-10-09T19:09:40.698Z,45.10
2022-10-09T19:12:13.417Z,45.03
2022-10-09T19:14:44.830Z,45.23
2022-10-09T19:17:13.246Z,47.33
2022-10-09T19:19:43.497Z,49.23
2022-10-09T19:22:21.406Z,49.97
2022-10-09T19:24:53.436Z,52.87
2022-10-09T19:27:26.468Z,57.17
2022-10-09T19:29:59.491Z,58.47
2022-10-09T19:32:27.627Z,64.37
2022-10-09T19:34:56.594Z,69.10
2022-10-09T19:37:27.545Z,65.93
2022-10-09T19:39:58.213Z,65.87
2022-10-09T19:42:28.026Z,69.20
2022-10-09T19:44:59.406Z,63.20
2022-10-09T19:47:28.253Z,64.13
2022-10-09T19:49:56.386Z,64.30
2022-10-09T19:52:25.007Z,65.20
2022-10-09T19:54:53.302Z,61.87
2022-10-09T19:57:22.606Z,68.63
2022-10-09T19:59:57.141Z,67.10
2022-10-09T20:02:25.227Z,68.37
2022-10-09T20:04:53.324Z,68.03
2022-10-09T20:07:24.274Z,69.27
2022-10-09T20:09:55.001Z,67.47
2022-10-09T20:12:32.972Z,67.50
2022-10-09T20:15:03.606Z,69.60
2022-10-09T20:17:31.952Z,74.80
2022-10-09T20:20:00.428Z,68.70
2022-10-09T20:22:33.343Z,62.57
2022-10-09T20:25:05.533Z,65.40
2022-10-09T20:27:36.984Z,69.80
2022-10-09T20:30:08.909Z,68.93
2022-10-09T20:32:37.997Z,71.13
2022-10-09T20:35:09.522Z,73.70
2022-10-09T20:37:37.842Z,77.73
2022-10-09T20:40:07.009Z,80.73
2022-10-09T20:42:37.316Z,79.37
2022-10-09T20:45:12.366Z,80.80
2022-10-09T20:47:40.659Z,82.67
2022-10-09T20:50:13.299Z,90.03
2022-10-09T20:52:41.407Z,95.77
2022-10-09T20:55:09.618Z,101.30
2022-10-09T20:57:39.019Z,105.93
2022-10-09T21:00:09.751Z,110.57
2022-10-09T21:02:38.065Z,113.63
2022-10-09T21:05:08.338Z,115.00
2022-10-09T21:07:36.483Z,127.43
2022-10-09T21:10:05.368Z,123.03
2022-10-09T21:12:33.554Z,122.33
2022-10-09T21:15:04.761Z,130.63
2022-10-09T21:17:34.562Z,126.40
2022-10-09T21:20:02.791Z,123.63
2022-10-09T21:22:31.200Z,123.20
2022-10-09T21:24:59.476Z,126.63
2022-10-09T21:27:27.591Z,134.23
2022-10-09T21:29:57.497Z,135.63
2022-10-09T21:32:25.798Z,150.57
2022-10-09T21:34:57.632Z,152.57
2022-10-09T21:37:25.920Z,161.00
2022-10-09T21:39:54.531Z,166.93
2022-10-09T21:42:22.894Z,178.47
2022-10-09T21:44:51.025Z,179.63
2022-10-09T21:47:19.631Z,183.70
2022-10-09T21:49:47.857Z,194.13
2022-10-09T21:52:17.476Z,183.33
2022-10-09T21:54:48.596Z,188.93
2022-10-09T21:57:19.302Z,216.80
2022-10-09T21:59:48.415Z,227.53
2022-10-09T22:02:16.534Z,234.10
2022-10-09T22:04:44.683Z,235.83
2022-10-09T22:07:17.543Z,251.83
2022-10-09T22:09:46.281Z,266.53
2022-10-09T22:12:14.568Z,275.30
2022-10-09T22:14:42.796Z,292.40
2022-10-09T22:17:11.010Z,285.03
2022-10-09T22:19:41.371Z,294.67
2022-10-09T22:22:09.901Z,310.83
2022-10-09T22:24:42.623Z,309.63
2022-10-09T22:27:23.940Z,324.37
2022-10-09T22:29:52.062Z,323.23
2022-10-09T22:32:20.228Z,331.37
2022-10-09T22:34:51.115Z,333.63
2022-10-09T22:37:21.524Z,331.00
2022-10-09T22:39:53.663Z,337.63
2022-10-09T22:42:21.846Z,357.47
2022-10-09T22:44:49.812Z,360.00
2022-10-09T22:47:17.956Z,354.90
2022-10-09T22:49:48.330Z,360.60
2022-10-09T22:52:16.335Z,350.10
2022-10-09T22:54:44.554Z,360.30
2022-10-09T22:57:13.957Z,362.00
2022-10-09T22:59:42.008Z,368.10
2022-10-09T23:02:10.181Z,365.73
2022-10-09T23:04:38.133Z,357.37
2022-10-09T23:07:06.094Z,371.23
2022-10-09T23:09:34.045Z,376.50
2022-10-09T23:12:02.164Z,387.60
2022-10-09T23:14:31.712Z,403.33
2022-10-09T23:16:59.843Z,403.70
2022-10-09T23:19:28.160Z,400.37
2022-10-09T23:21:56.169Z,401.03
2022-10-09T23:24:29.442Z,403.90
2022-10-09T23:27:01.210Z,420.10
2022-10-09T23:29:29.426Z,427.10
2022-10-09T23:31:58.825Z,433.83
2022-10-09T23:34:26.946Z,441.90
2022-10-09T23:36:57.249Z,440.90
2022-10-09T23:39:25.419Z,437.47
2022-10-09T23:41:53.515Z,451.67
2022-10-09T23:44:25.241Z,449.07
2022-10-09T23:46:53.202Z,454.00
2022-10-09T23:49:22.618Z,450.57
2022-10-09T23:51:50.581Z,454.20
2022-10-09T23:54:18.502Z,465.50
2022-10-09T23:56:46.484Z,477.70
2022-10-09T23:59:14.419Z,482.60
